KLIT/LIT METAR and TAF weather

Enter ICAO airport designator
Station Type Date Time Source
KLIT METAR 2019/02/21 10:53 UTC NOAA

KLIT 211053Z 00000KT 7SM SCT250 01/01 A3013 RMK AO2 SLP207 T00110006 $


Station Type Date Time Source
KLIT Decoded METAR 2019/02/21 10:53 UTC NOAA

LITTLE ROCK ADAMS FIELD, AR, United States (KLIT) 34-44N 92-14W 79M
Feb 21, 2019 - 05:53 AM EST / 2019.02.21 1053 UTC
Wind: Calm:0
Visibility: 7 mile(s):0
Sky conditions: partly cloudy
Temperature: 34.0 F (1.1 C)
Dew Point: 33.1 F (0.6 C)
Relative Humidity: 96%
Pressure (altimeter): 30.13 in. Hg (1020 hPa)
ob: KLIT 211053Z 00000KT 7SM SCT250 01/01 A3013 RMK AO2 SLP207 T00110006
cycle: 11

Station Type Date Time Source
KLIT TAF 2019/02/21 12:24 UTC NOAA

TAF KLIT 211121Z 2112/2212 VRB04KT 6SM BR BKN250
TEMPO 2112/2114 2SM BR
FM211500 06007KT P6SM BKN250
FM211900 07006KT P6SM VCSH BKN040 BKN120 BKN250
FM212200 08009KT 6SM -SHRA BR SCT025 BKN030 OVC100
FM220200 06010KT 4SM -SHRA BR BKN020 OVC030
FM220900 04006KT 2SM -SHRA BR OVC011


Example: see airport list